Time;durP1;ratioP1;P1;durP2;ratioP2;P2;SDS_P1;SDS_P2;PMS_P1;PMS_P2;Temp;Humidity;BMP_temperature;BMP_pressure;BME280_temperature;BME280_humidity;BME280_pressure;Samples;Min_cycle;Max_cycle;Signal;HPM_P1;HPM_P2
2020/12/28 00:01:56;;;;;;;1.20;0.70;;;5.70;91.60;;;;;;5057590;28;20111;-79
2020/12/28 00:04:21;;;;;;;1.20;0.90;;;5.70;91.60;;;;;;5074886;28;20392;-79
2020/12/28 00:06:47;;;;;;;1.55;0.75;;;5.60;91.60;;;;;;5058235;28;20028;-79
2020/12/28 00:09:13;;;;;;;1.77;0.80;;;5.60;91.60;;;;;;5057720;28;20476;-79
2020/12/28 00:11:39;;;;;;;1.58;0.75;;;5.60;91.70;;;;;;5092467;28;20044;-79
2020/12/28 00:14:05;;;;;;;1.70;0.57;;;5.60;91.60;;;;;;5076770;28;20032;-79
2020/12/28 00:16:32;;;;;;;1.10;0.77;;;5.60;91.70;;;;;;5096411;28;20039;-79
2020/12/28 00:18:57;;;;;;;1.30;0.80;;;5.60;91.70;;;;;;5096556;28;20020;-79
2020/12/28 00:21:23;;;;;;;0.90;0.70;;;5.60;91.70;;;;;;5078632;28;20043;-79
2020/12/28 00:23:48;;;;;;;0.93;0.50;;;5.60;91.70;;;;;;5078394;28;20035;-79
2020/12/28 00:26:14;;;;;;;0.73;0.50;;;5.60;91.70;;;;;;5078213;28;20031;-79
2020/12/28 00:28:40;;;;;;;0.50;0.40;;;5.50;91.70;;;;;;5078231;28;20033;-79
2020/12/28 00:31:08;;;;;;;0.50;0.50;;;5.50;91.70;;;;;;5078230;28;20035;-79
2020/12/28 00:33:34;;;;;;;0.73;0.63;;;5.60;91.70;;;;;;5078155;28;20531;-79
2020/12/28 00:36:00;;;;;;;0.50;0.50;;;5.50;91.70;;;;;;5075142;28;20041;-79
2020/12/28 00:38:25;;;;;;;2.00;0.60;;;5.50;91.70;;;;;;5077844;28;20119;-79
2020/12/28 00:40:51;;;;;;;1.88;0.60;;;5.50;91.70;;;;;;5061087;28;20028;-79
2020/12/28 00:43:16;;;;;;;1.05;0.68;;;5.50;91.70;;;;;;5061275;28;20036;-79
2020/12/28 00:45:42;;;;;;;0.68;0.68;;;5.50;91.70;;;;;;5062690;28;20048;-80
2020/12/28 00:48:08;;;;;;;0.55;0.55;;;5.60;91.70;;;;;;5063677;28;20024;-80
2020/12/28 00:50:33;;;;;;;0.40;0.40;;;5.50;91.70;;;;;;5080425;28;20024;-80
2020/12/28 00:52:59;;;;;;;1.58;0.70;;;5.60;91.70;;;;;;5063727;28;20388;-80
2020/12/28 00:55:24;;;;;;;1.80;1.00;;;5.50;91.70;;;;;;5080406;28;20028;-80
2020/12/28 00:57:50;;;;;;;1.35;0.77;;;5.50;91.70;;;;;;5063973;28;20028;-80
2020/12/28 01:00:15;;;;;;;1.25;0.70;;;5.50;91.70;;;;;;5079935;28;20067;-80
2020/12/28 01:02:41;;;;;;;1.00;0.60;;;5.50;91.70;;;;;;5063836;28;20024;-80
2020/12/28 01:05:07;;;;;;;1.67;0.82;;;5.60;91.70;;;;;;5081042;28;20372;-80
2020/12/28 01:07:32;;;;;;;1.55;0.80;;;5.60;91.70;;;;;;5064007;28;20025;-80
2020/12/28 01:09:58;;;;;;;1.20;0.90;;;5.50;91.70;;;;;;5063811;28;20475;-79
2020/12/28 01:12:23;;;;;;;0.70;0.65;;;5.50;91.70;;;;;;5077354;28;20088;-80
2020/12/28 01:14:49;;;;;;;1.02;0.70;;;5.50;91.70;;;;;;5060757;28;20053;-80
2020/12/28 01:17:14;;;;;;;0.82;0.68;;;5.50;91.70;;;;;;5077383;28;20104;-80
2020/12/28 01:19:40;;;;;;;1.00;0.90;;;5.40;91.70;;;;;;5060746;28;20048;-80
2020/12/28 01:22:06;;;;;;;0.90;0.90;;;5.40;91.70;;;;;;5060571;28;20036;-80
2020/12/28 01:24:31;;;;;;;1.35;0.77;;;5.40;91.70;;;;;;5077011;28;20066;-80
2020/12/28 01:26:57;;;;;;;0.85;0.75;;;5.40;91.90;;;;;;5077298;28;20024;-80
2020/12/28 01:29:22;;;;;;;1.40;0.80;;;5.40;91.70;;;;;;5095044;28;20445;-80
2020/12/28 01:31:48;;;;;;;1.17;0.70;;;5.40;91.70;;;;;;5060706;28;20032;-80
2020/12/28 01:34:14;;;;;;;1.30;0.57;;;5.40;91.70;;;;;;5077475;28;20050;-80
2020/12/28 01:36:39;;;;;;;0.90;0.80;;;5.40;91.70;;;;;;5061312;28;20085;-77
2020/12/28 01:39:05;;;;;;;0.52;0.52;;;5.40;91.70;;;;;;5077076;28;20032;-77
2020/12/28 01:41:31;;;;;;;1.20;0.60;;;5.40;91.70;;;;;;5060182;28;20032;-77
2020/12/28 01:43:56;;;;;;;1.23;0.82;;;5.30;91.70;;;;;;5076236;28;20469;-77
2020/12/28 01:46:23;;;;;;;3.45;0.73;;;5.30;91.70;;;;;;5077215;28;20024;-80
2020/12/28 01:48:51;;;;;;;0.82;0.70;;;5.30;91.70;;;;;;5076840;28;20024;-80
2020/12/28 01:51:17;;;;;;;1.13;0.70;;;5.30;91.70;;;;;;5060984;28;20031;-80
2020/12/28 01:53:43;;;;;;;1.25;0.75;;;5.30;91.70;;;;;;5081101;28;20028;-80
2020/12/28 01:56:11;;;;;;;0.80;0.60;;;5.30;91.70;;;;;;5081055;28;20024;-80
2020/12/28 01:58:36;;;;;;;0.95;0.80;;;5.30;91.70;;;;;;5099925;28;20021;-80
2020/12/28 02:01:02;;;;;;;1.10;1.00;;;5.30;91.70;;;;;;5099835;28;20012;-80
2020/12/28 02:03:28;;;;;;;3.22;2.10;;;5.30;91.80;;;;;;5099935;28;20383;-80
2020/12/28 02:05:54;;;;;;;5.00;2.47;;;5.30;91.70;;;;;;5099700;28;20020;-80
2020/12/28 02:08:20;;;;;;;4.47;2.60;;;5.40;91.70;;;;;;5081496;28;20110;-80
2020/12/28 02:10:46;;;;;;;3.83;2.03;;;5.30;91.70;;;;;;5064297;28;20104;-80
2020/12/28 02:13:11;;;;;;;2.83;1.08;;;5.40;91.70;;;;;;5081772;28;20052;-80
2020/12/28 02:15:37;;;;;;;1.58;0.75;;;5.30;91.70;;;;;;5082158;28;20079;-80
2020/12/28 02:18:03;;;;;;;0.73;0.50;;;5.40;91.60;;;;;;5081844;28;20052;-80
2020/12/28 02:20:29;;;;;;;0.98;0.70;;;5.30;91.60;;;;;;5099080;28;20028;-80
2020/12/28 02:22:54;;;;;;;1.48;0.50;;;5.30;91.60;;;;;;5099838;28;20032;-80
2020/12/28 02:25:20;;;;;;;0.65;0.50;;;5.40;91.60;;;;;;5081943;28;20104;-80
2020/12/28 02:27:46;;;;;;;0.50;0.43;;;5.30;91.60;;;;;;5048749;28;20034;-80
2020/12/28 02:30:12;;;;;;;0.80;0.45;;;5.30;91.60;;;;;;5081677;28;20078;-80
2020/12/28 02:32:38;;;;;;;1.38;0.60;;;5.30;91.60;;;;;;5065128;28;20031;-80
2020/12/28 02:35:05;;;;;;;3.47;0.50;;;5.30;91.60;;;;;;5081503;28;20055;-80
2020/12/28 02:37:30;;;;;;;0.50;0.50;;;5.30;91.60;;;;;;5069728;28;20020;-80
2020/12/28 02:39:56;;;;;;;0.80;0.60;;;5.30;91.60;;;;;;5081584;28;20024;-80
2020/12/28 02:42:22;;;;;;;0.50;0.50;;;5.30;91.60;;;;;;5079517;28;20027;-77
2020/12/28 02:44:48;;;;;;;2.80;0.55;;;5.30;91.60;;;;;;5058843;28;20040;-77
2020/12/28 02:47:13;;;;;;;0.73;0.65;;;5.30;91.60;;;;;;5041590;28;20032;-77
2020/12/28 02:49:39;;;;;;;0.68;0.60;;;5.30;91.60;;;;;;5092886;28;20381;-77
2020/12/28 02:52:04;;;;;;;0.60;0.60;;;5.40;91.60;;;;;;5075022;28;20048;-77
2020/12/28 02:54:30;;;;;;;0.60;0.60;;;5.30;91.60;;;;;;5054923;28;20396;-79
2020/12/28 02:56:56;;;;;;;0.65;0.65;;;5.40;91.60;;;;;;5074430;28;20476;-79
2020/12/28 02:59:21;;;;;;;1.45;0.80;;;5.30;91.60;;;;;;5074466;28;20032;-79
2020/12/28 03:01:48;;;;;;;0.75;0.60;;;5.30;91.60;;;;;;5038944;28;20040;-79
2020/12/28 03:04:14;;;;;;;1.00;0.90;;;5.30;91.60;;;;;;5079141;28;20023;-79
2020/12/28 03:06:40;;;;;;;1.88;1.45;;;5.30;91.60;;;;;;5091856;28;20388;-79
2020/12/28 03:09:06;;;;;;;2.25;1.50;;;5.30;91.60;;;;;;5057334;28;20030;-79
2020/12/28 03:11:31;;;;;;;1.83;1.40;;;5.30;91.60;;;;;;5057197;28;20044;-79
2020/12/28 03:13:57;;;;;;;1.35;1.05;;;5.40;91.60;;;;;;5058486;28;20361;-77
2020/12/28 03:16:22;;;;;;;1.42;0.90;;;5.40;91.60;;;;;;5075578;28;20024;-77
2020/12/28 03:18:48;;;;;;;1.20;0.98;;;5.40;91.60;;;;;;5093199;28;20383;-77
2020/12/28 03:21:13;;;;;;;0.98;0.95;;;5.40;91.60;;;;;;5075463;28;20468;-77
2020/12/28 03:23:39;;;;;;;1.38;1.05;;;5.40;91.50;;;;;;5058743;28;20119;-77
2020/12/28 03:26:05;;;;;;;1.13;0.85;;;5.40;91.50;;;;;;5074981;28;20391;-77
2020/12/28 03:28:30;;;;;;;1.10;0.70;;;5.40;91.50;;;;;;5058160;28;20028;-77
2020/12/28 03:30:56;;;;;;;1.42;0.60;;;5.40;91.50;;;;;;5058545;28;20473;-77
2020/12/28 03:33:21;;;;;;;0.93;0.70;;;5.40;91.50;;;;;;5075176;28;20085;-77
2020/12/28 03:35:47;;;;;;;0.93;0.70;;;5.40;91.50;;;;;;5038333;28;20028;-77
2020/12/28 03:38:12;;;;;;;0.90;0.75;;;5.30;91.40;;;;;;5088383;28;20039;-77
2020/12/28 03:40:38;;;;;;;1.13;0.63;;;5.30;91.40;;;;;;5071743;28;20118;-77
2020/12/28 03:43:04;;;;;;;3.70;1.02;;;5.20;91.40;;;;;;5091284;28;20029;-77
2020/12/28 03:45:29;;;;;;;1.45;0.40;;;5.20;91.40;;;;;;5071599;28;20037;-77
2020/12/28 03:47:56;;;;;;;1.83;0.70;;;5.10;91.50;;;;;;5091907;28;20365;-77
2020/12/28 03:50:22;;;;;;;2.22;0.98;;;5.10;91.50;;;;;;5062253;28;20556;-77
2020/12/28 03:52:48;;;;;;;0.75;0.50;;;5.00;91.50;;;;;;5096945;28;20111;-77
2020/12/28 03:55:13;;;;;;;2.28;0.70;;;4.90;91.50;;;;;;5062126;28;20032;-77
2020/12/28 03:57:39;;;;;;;1.63;0.60;;;4.80;91.50;;;;;;5078753;28;20631;-77
2020/12/28 04:00:05;;;;;;;0.57;0.40;;;4.80;91.60;;;;;;5078949;28;20089;-77
2020/12/28 04:02:30;;;;;;;3.50;0.60;;;4.80;91.60;;;;;;5078340;28;20050;-77
2020/12/28 04:04:56;;;;;;;1.17;0.50;;;4.70;91.60;;;;;;5045338;28;20024;-77
2020/12/28 04:07:22;;;;;;;2.22;0.52;;;4.70;91.60;;;;;;5096944;28;20093;-79
2020/12/28 04:09:48;;;;;;;0.60;0.50;;;4.70;91.60;;;;;;5058971;28;20028;-80
2020/12/28 04:12:13;;;;;;;1.20;0.57;;;4.60;91.60;;;;;;5078303;28;20105;-80
2020/12/28 04:14:40;;;;;;;2.10;0.77;;;4.60;91.60;;;;;;5061435;28;20032;-80
2020/12/28 04:17:05;;;;;;;1.20;0.80;;;4.60;91.60;;;;;;5098933;28;20028;-80
2020/12/28 04:19:31;;;;;;;1.17;0.60;;;4.50;91.60;;;;;;5111797;28;20100;-79
2020/12/28 04:21:57;;;;;;;1.85;0.90;;;4.50;91.60;;;;;;5077630;28;20024;-79
2020/12/28 04:24:22;;;;;;;0.93;0.75;;;4.50;91.60;;;;;;5077667;28;20039;-79
2020/12/28 04:26:48;;;;;;;1.10;0.70;;;4.40;91.60;;;;;;5061043;28;20172;-79
2020/12/28 04:29:14;;;;;;;1.77;0.85;;;4.40;91.60;;;;;;5095846;28;20047;-79
2020/12/28 04:31:43;;;;;;;1.65;0.90;;;4.40;91.70;;;;;;5077245;28;20032;-79
2020/12/28 04:34:09;;;;;;;4.45;0.90;;;4.50;91.70;;;;;;5077255;28;20410;-79
2020/12/28 04:36:36;;;;;;;2.67;0.90;;;4.50;91.60;;;;;;5077154;28;20111;-79
2020/12/28 04:39:04;;;;;;;0.80;0.73;;;4.50;91.70;;;;;;5077143;28;20052;-79
2020/12/28 04:41:29;;;;;;;3.42;1.20;;;4.50;91.60;;;;;;5061160;28;20056;-79
2020/12/28 04:43:55;;;;;;;4.15;1.10;;;4.50;91.60;;;;;;5077890;28;20101;-79
2020/12/28 04:46:21;;;;;;;2.40;0.90;;;4.50;91.60;;;;;;5096020;28;20103;-79
2020/12/28 04:48:47;;;;;;;5.07;1.25;;;4.40;91.60;;;;;;5095676;28;20031;-79
2020/12/28 04:51:13;;;;;;;4.82;1.17;;;4.40;91.60;;;;;;5096057;28;20028;-79
2020/12/28 04:53:41;;;;;;;4.47;1.10;;;4.50;91.60;;;;;;5077625;28;20388;-78
2020/12/28 04:56:08;;;;;;;4.30;1.00;;;4.50;91.70;;;;;;5077849;28;20036;-79
2020/12/28 04:58:34;;;;;;;3.28;1.08;;;4.50;91.60;;;;;;5077193;28;20125;-79
2020/12/28 05:01:00;;;;;;;3.10;1.10;;;4.50;91.60;;;;;;5077260;28;20469;-79
2020/12/28 05:03:27;;;;;;;2.88;1.10;;;4.50;91.60;;;;;;5077315;28;20400;-79
2020/12/28 05:05:53;;;;;;;3.40;1.10;;;4.50;91.60;;;;;;5077588;28;20027;-79
2020/12/28 05:08:19;;;;;;;3.35;1.30;;;4.40;91.60;;;;;;5076679;28;20024;-79
2020/12/28 05:10:46;;;;;;;6.10;0.95;;;4.40;91.60;;;;;;5094714;28;20106;-79
2020/12/28 05:13:14;;;;;;;3.03;1.40;;;4.40;91.60;;;;;;5094924;28;20056;-79
2020/12/28 05:15:50;;;;;;;0.77;0.73;;;4.30;91.60;;;;;;5087585;28;20112;-79
2020/12/28 05:18:19;;;;;;;3.35;0.95;;;4.20;91.70;;;;;;5067873;28;20032;-79
2020/12/28 05:20:49;;;;;;;2.15;1.20;;;4.20;91.70;;;;;;5085973;28;20035;-79
2020/12/28 05:23:16;;;;;;;2.67;0.82;;;4.10;91.70;;;;;;5094256;28;20613;-78
2020/12/28 05:25:46;;;;;;;4.47;0.90;;;4.10;91.70;;;;;;5076555;28;20118;-79
2020/12/28 05:28:26;;;;;;;1.55;1.00;;;4.00;91.70;;;;;;5059875;28;20031;-79
2020/12/28 05:30:52;;;;;;;4.63;1.30;;;4.00;91.70;;;;;;5095799;28;20016;-79
2020/12/28 05:33:19;;;;;;;2.85;1.17;;;4.00;91.70;;;;;;5095915;28;20380;-79
2020/12/28 05:35:45;;;;;;;3.80;1.00;;;3.90;91.70;;;;;;5077974;28;20492;-79
2020/12/28 05:38:12;;;;;;;1.98;1.17;;;3.90;91.70;;;;;;5078272;28;20028;-79
2020/12/28 05:40:38;;;;;;;2.08;1.20;;;3.90;91.70;;;;;;5078750;28;20023;-79
2020/12/28 05:43:04;;;;;;;2.08;1.10;;;3.90;91.70;;;;;;5078131;28;20028;-80
2020/12/28 05:45:32;;;;;;;2.58;1.13;;;3.90;91.70;;;;;;5078023;28;20024;-79
2020/12/28 05:48:00;;;;;;;4.63;1.40;;;3.90;91.70;;;;;;5095532;28;20043;-79
2020/12/28 05:50:32;;;;;;;2.65;1.17;;;3.80;91.70;;;;;;5095672;28;20091;-79
2020/12/28 05:52:59;;;;;;;1.60;1.48;;;3.80;91.70;;;;;;5095841;28;20028;-79
2020/12/28 05:55:27;;;;;;;1.67;1.17;;;3.80;91.70;;;;;;5078014;28;20035;-79
2020/12/28 05:57:55;;;;;;;1.83;1.20;;;3.80;91.70;;;;;;5076965;28;20112;-79
2020/12/28 06:00:21;;;;;;;3.00;1.20;;;3.80;91.70;;;;;;5057382;28;20020;-79
2020/12/28 06:02:47;;;;;;;2.30;1.30;;;3.80;91.70;;;;;;5099888;28;20119;-79
2020/12/28 06:05:17;;;;;;;2.33;1.38;;;3.80;92.00;;;;;;5077401;28;20104;-79
2020/12/28 06:07:44;;;;;;;1.63;1.20;;;3.80;91.70;;;;;;5077934;28;20106;-80
2020/12/28 06:10:11;;;;;;;1.77;1.30;;;3.80;91.70;;;;;;5077340;28;20107;-79
2020/12/28 06:12:37;;;;;;;1.20;0.98;;;3.80;91.70;;;;;;5077327;28;20047;-79
2020/12/28 06:15:15;;;;;;;1.55;1.10;;;3.80;91.70;;;;;;5078847;28;20028;-79
2020/12/28 06:17:41;;;;;;;3.15;1.20;;;3.80;91.70;;;;;;5078515;28;20020;-79
2020/12/28 06:20:07;;;;;;;1.50;1.02;;;3.80;91.70;;;;;;5078108;28;20028;-79
2020/12/28 06:22:34;;;;;;;1.45;1.00;;;3.80;91.70;;;;;;5077981;28;20036;-79
2020/12/28 06:25:09;;;;;;;1.55;0.98;;;3.80;91.80;;;;;;5076971;28;20468;-80
2020/12/28 06:27:38;;;;;;;2.10;1.23;;;3.90;91.80;;;;;;5094394;28;20036;-80
2020/12/28 06:30:15;;;;;;;;;;;3.90;91.70;;;;;;5076428;28;20016;-79
2020/12/28 06:32:41;;;;;;;1.27;1.00;;;3.80;91.70;;;;;;5059510;28;19987;-80
2020/12/28 06:35:09;;;;;;;1.48;1.00;;;3.80;91.70;;;;;;5094028;28;20028;-80
2020/12/28 06:37:38;;;;;;;1.23;1.13;;;3.80;91.70;;;;;;5094070;28;20085;-80
2020/12/28 06:40:04;;;;;;;2.08;1.17;;;3.90;91.80;;;;;;5075982;28;20029;-80
2020/12/28 06:42:30;;;;;;;1.40;1.00;;;3.90;91.80;;;;;;5093785;28;20034;-80
2020/12/28 06:44:55;;;;;;;1.70;1.10;;;3.90;91.80;;;;;;5075926;28;20039;-80
2020/12/28 06:47:30;;;;;;;2.05;0.98;;;4.00;91.80;;;;;;5094091;28;20027;-81
2020/12/28 06:49:55;;;;;;;3.30;1.17;;;4.00;91.80;;;;;;5059905;28;20032;-81
2020/12/28 06:52:21;;;;;;;3.80;1.15;;;4.00;91.80;;;;;;5042640;28;20484;-81
2020/12/28 06:54:47;;;;;;;1.65;0.90;;;4.00;91.80;;;;;;5075807;28;20103;-80
2020/12/28 06:57:13;;;;;;;1.70;0.98;;;4.00;91.80;;;;;;5059038;28;20056;-81
2020/12/28 06:59:40;;;;;;;2.33;1.10;;;4.00;91.80;;;;;;5075354;28;20563;-80
2020/12/28 07:02:07;;;;;;;1.73;1.00;;;4.00;91.80;;;;;;5093791;28;20390;-81
2020/12/28 07:04:37;;;;;;;2.15;0.90;;;4.00;91.80;;;;;;5075455;28;20392;-81
2020/12/28 07:07:05;;;;;;;1.40;0.95;;;4.00;92.10;;;;;;5058869;28;20020;-81
2020/12/28 07:09:31;;;;;;;3.17;1.30;;;3.90;91.80;;;;;;5075491;28;20025;-81
2020/12/28 07:12:07;;;;;;;1.73;1.00;;;3.90;91.80;;;;;;5075254;28;20059;-81
2020/12/28 07:14:33;;;;;;;2.08;1.20;;;3.90;91.80;;;;;;5075555;28;20024;-81
2020/12/28 07:16:59;;;;;;;2.65;1.33;;;3.90;91.80;;;;;;5075359;28;20121;-81
2020/12/28 07:19:24;;;;;;;3.08;1.23;;;3.80;91.80;;;;;;5093491;28;20039;-81
2020/12/28 07:21:50;;;;;;;1.98;1.30;;;3.80;91.80;;;;;;5075164;28;20040;-81
2020/12/28 07:24:16;;;;;;;1.92;1.20;;;3.70;91.80;;;;;;5058661;28;20032;-80
2020/12/28 07:26:43;;;;;;;2.08;1.60;;;3.70;91.80;;;;;;5075298;28;20016;-81
2020/12/28 07:29:13;;;;;;;3.53;0.85;;;3.70;91.80;;;;;;5058496;28;20029;-75
2020/12/28 07:31:39;;;;;;;1.88;0.98;;;3.70;91.90;;;;;;5075255;28;20032;-76
2020/12/28 07:34:05;;;;;;;4.43;1.20;;;3.70;91.80;;;;;;5058450;28;20039;-76
2020/12/28 07:36:34;;;;;;;2.35;1.20;;;3.70;91.90;;;;;;5093236;28;20074;-76
2020/12/28 07:39:00;;;;;;;1.30;0.95;;;3.70;91.90;;;;;;5075128;28;20027;-76
2020/12/28 07:41:26;;;;;;;3.22;1.00;;;3.60;91.80;;;;;;5058589;28;20459;-76
2020/12/28 07:43:54;;;;;;;3.35;1.05;;;3.60;91.80;;;;;;5074872;28;20036;-75
2020/12/28 07:46:23;;;;;;;3.13;1.20;;;3.60;91.80;;;;;;5075170;28;20422;-76
2020/12/28 07:48:53;;;;;;;0.93;0.80;;;3.60;91.80;;;;;;5074864;28;20020;-76
2020/12/28 07:51:21;;;;;;;2.40;1.00;;;3.60;91.80;;;;;;5092999;28;20488;-76
2020/12/28 07:53:50;;;;;;;1.75;1.00;;;3.70;91.80;;;;;;5074718;28;20048;-76
2020/12/28 07:56:26;;;;;;;5.63;0.90;;;3.70;91.70;;;;;;5092956;28;20476;-75
2020/12/28 07:59:08;;;;;;;2.97;1.08;;;3.70;91.70;;;;;;5093211;28;20028;-75
2020/12/28 08:01:47;;;;;;;2.45;1.05;;;3.70;92.00;;;;;;5072491;28;20119;-76
2020/12/28 08:04:21;;;;;;;2.05;0.75;;;3.60;91.70;;;;;;5084430;28;20534;-75
2020/12/28 08:06:47;;;;;;;1.27;0.90;;;3.70;91.70;;;;;;5074894;28;20039;-76
2020/12/28 08:09:12;;;;;;;2.35;1.10;;;3.60;91.70;;;;;;5075105;28;20024;-79
2020/12/28 08:11:38;;;;;;;3.50;1.10;;;3.70;91.70;;;;;;5058120;28;20520;-79
2020/12/28 08:14:10;;;;;;;1.58;1.00;;;3.60;91.70;;;;;;5058253;28;20478;-79
2020/12/28 08:16:36;;;;;;;2.83;1.13;;;3.70;91.70;;;;;;5041711;28;20024;-78
2020/12/28 08:19:02;;;;;;;2.35;0.95;;;3.60;91.60;;;;;;5075070;28;20077;-78
2020/12/28 08:21:39;;;;;;;2.45;1.27;;;3.60;91.60;;;;;;5057262;28;20402;-78
2020/12/28 08:24:05;;;;;;;2.85;1.10;;;3.70;91.70;;;;;;5066124;28;20036;-78
2020/12/28 08:26:31;;;;;;;3.40;1.00;;;3.60;91.60;;;;;;5099916;28;20027;-78
2020/12/28 08:28:59;;;;;;;2.28;1.80;;;3.70;91.60;;;;;;5099838;28;20027;-79
2020/12/28 08:31:29;;;;;;;2.90;1.10;;;3.70;91.60;;;;;;5074110;28;20051;-79
2020/12/28 08:34:09;;;;;;;2.70;1.13;;;3.70;91.60;;;;;;5092776;28;20034;-79
2020/12/28 08:36:37;;;;;;;2.65;0.85;;;3.70;91.60;;;;;;5078023;28;20557;-79
2020/12/28 08:39:18;;;;;;;3.35;0.95;;;3.70;91.50;;;;;;5078175;28;20039;-79
2020/12/28 08:41:53;;;;;;;4.28;1.02;;;3.70;91.60;;;;;;5095909;28;20016;-79
2020/12/28 08:44:34;;;;;;;4.28;1.10;;;3.70;91.50;;;;;;5078070;28;20032;-79
2020/12/28 08:47:06;;;;;;;5.78;1.00;;;3.70;91.50;;;;;;5087564;28;20028;-79
2020/12/28 08:49:33;;;;;;;2.15;1.13;;;3.70;91.50;;;;;;5086971;28;20021;-79
2020/12/28 08:52:20;;;;;;;5.35;0.82;;;3.70;91.40;;;;;;5096026;28;20024;-80
2020/12/28 08:54:58;;;;;;;3.67;0.98;;;3.70;91.50;;;;;;5077587;28;20507;-79
2020/12/28 08:57:30;;;;;;;4.57;1.15;;;3.80;91.50;;;;;;5077493;28;20501;-79
2020/12/28 08:59:57;;;;;;;3.78;1.30;;;3.70;91.40;;;;;;5077789;28;20032;-79
2020/12/28 09:02:24;;;;;;;3.28;0.90;;;3.80;91.40;;;;;;5077156;28;20460;-78
2020/12/28 09:04:50;;;;;;;3.15;0.90;;;3.80;91.30;;;;;;5077797;28;20073;-79
2020/12/28 09:07:17;;;;;;;3.55;1.00;;;3.80;91.30;;;;;;5077568;28;20376;-79
2020/12/28 09:09:44;;;;;;;3.05;1.08;;;3.90;91.30;;;;;;5077632;28;20354;-79
2020/12/28 09:12:11;;;;;;;4.47;0.85;;;3.90;91.20;;;;;;5060708;28;20056;-79
2020/12/28 09:14:37;;;;;;;3.40;0.90;;;4.00;91.20;;;;;;5077593;28;20119;-79
2020/12/28 09:17:03;;;;;;;2.63;0.73;;;4.00;91.10;;;;;;5095593;28;20105;-79
2020/12/28 09:19:29;;;;;;;3.20;0.80;;;4.10;91.10;;;;;;5077767;28;20456;-79
2020/12/28 09:21:56;;;;;;;2.47;0.60;;;4.10;91.00;;;;;;5095407;28;20103;-79
2020/12/28 09:24:22;;;;;;;4.05;0.90;;;4.20;91.00;;;;;;5095609;28;20020;-79
2020/12/28 09:26:48;;;;;;;4.97;0.90;;;4.20;91.20;;;;;;5060740;28;20081;-79
2020/12/28 09:29:13;;;;;;;1.60;0.60;;;4.30;91.10;;;;;;5077179;28;20410;-81
2020/12/28 09:31:39;;;;;;;6.75;0.80;;;4.30;90.80;;;;;;5044353;28;20044;-81
2020/12/28 09:34:05;;;;;;;3.85;0.70;;;4.40;90.80;;;;;;5060715;28;20373;-81
2020/12/28 09:36:31;;;;;;;2.35;0.55;;;4.40;90.70;;;;;;5077198;28;20028;-82
2020/12/28 09:38:56;;;;;;;2.15;0.60;;;4.50;90.70;;;;;;5065005;28;20020;-83
2020/12/28 09:41:22;;;;;;;3.67;0.80;;;4.50;90.60;;;;;;5088699;28;20024;-85
2020/12/28 09:43:47;;;;;;;2.30;0.50;;;4.60;90.60;;;;;;5055880;28;20054;-85
2020/12/28 09:46:19;;;;;;;2.55;0.80;;;4.60;90.50;;;;;;5088813;28;20062;-85
2020/12/28 09:48:45;;;;;;;3.42;1.05;;;4.70;90.40;;;;;;5089635;28;20024;-85
2020/12/28 09:51:10;;;;;;;1.55;0.80;;;4.70;90.40;;;;;;5087612;28;20389;-86
2020/12/28 09:53:38;;;;;;;2.20;1.00;;;4.70;90.40;;;;;;5070334;28;20073;-86
2020/12/28 09:56:04;;;;;;;1.77;0.80;;;4.80;90.30;;;;;;5075941;28;20038;-84
2020/12/28 09:58:31;;;;;;;2.45;1.20;;;4.80;90.30;;;;;;5077065;28;20032;-83
2020/12/28 10:00:56;;;;;;;4.18;1.40;;;4.90;90.20;;;;;;5060187;28;20032;-79
2020/12/28 10:03:22;;;;;;;3.50;1.20;;;4.90;90.10;;;;;;5094793;28;20111;-79
2020/12/28 10:05:47;;;;;;;4.95;1.17;;;4.90;90.10;;;;;;5093497;28;20074;-79
2020/12/28 10:08:13;;;;;;;1.63;0.85;;;5.00;90.00;;;;;;5094928;28;20031;-79
2020/12/28 10:10:39;;;;;;;2.45;1.13;;;5.00;90.00;;;;;;5076369;28;20484;-79
2020/12/28 10:13:04;;;;;;;4.95;1.10;;;5.00;90.00;;;;;;5059948;28;20036;-79
2020/12/28 10:15:30;;;;;;;2.95;0.90;;;5.00;90.00;;;;;;5076489;28;20036;-80
2020/12/28 10:18:28;;;;;;;2.83;1.10;;;5.00;89.90;;;;;;5059853;28;20020;-79
2020/12/28 10:20:53;;;;;;;2.78;1.20;;;5.00;89.90;;;;;;5060480;28;20032;-79
2020/12/28 10:23:19;;;;;;;1.30;1.00;;;5.00;89.90;;;;;;5092609;28;20039;-77
2020/12/28 10:25:45;;;;;;;4.03;1.15;;;5.00;89.70;;;;;;5075082;28;20472;-77
2020/12/28 10:28:11;;;;;;;4.60;1.20;;;5.00;89.70;;;;;;5074916;28;20038;-77
2020/12/28 10:30:36;;;;;;;2.97;1.10;;;5.10;89.80;;;;;;5075435;28;20077;-77
2020/12/28 10:33:02;;;;;;;3.83;1.40;;;5.10;89.70;;;;;;5093355;28;20028;-77
2020/12/28 10:35:28;;;;;;;7.22;1.20;;;5.10;89.60;;;;;;5087393;28;20067;-77
2020/12/28 10:37:55;;;;;;;3.38;1.23;;;5.20;89.60;;;;;;5129441;27;20418;-77
2020/12/28 10:40:21;;;;;;;2.45;1.00;;;5.20;89.50;;;;;;5110173;27;20556;-77
2020/12/28 10:42:46;;;;;;;2.20;0.77;;;5.20;89.40;;;;;;5075563;28;20454;-86
2020/12/28 10:45:12;;;;;;;2.53;1.00;;;5.30;89.40;;;;;;5059980;28;20035;-85
2020/12/28 10:47:37;;;;;;;3.00;1.00;;;5.30;89.20;;;;;;5059396;28;20535;-85
2020/12/28 10:50:03;;;;;;;4.63;1.42;;;5.40;89.10;;;;;;5075480;28;20051;-86
2020/12/28 10:52:29;;;;;;;4.70;1.73;;;5.30;88.90;;;;;;5075413;28;20457;-85
2020/12/28 10:54:54;;;;;;;2.97;1.40;;;5.40;88.80;;;;;;5058306;28;20411;-86
2020/12/28 10:57:20;;;;;;;3.40;1.30;;;5.50;88.70;;;;;;5074931;28;20053;-85
2020/12/28 10:59:46;;;;;;;5.55;0.90;;;5.50;88.60;;;;;;5058770;28;20488;-85
2020/12/28 11:02:11;;;;;;;3.78;1.00;;;5.50;88.50;;;;;;5042535;28;20032;-86
2020/12/28 11:04:37;;;;;;;2.95;1.00;;;5.50;88.30;;;;;;5093955;28;20075;-85
2020/12/28 11:07:02;;;;;;;4.40;1.30;;;5.50;88.20;;;;;;5042093;28;20032;-79
2020/12/28 11:09:28;;;;;;;3.53;1.05;;;5.50;88.20;;;;;;5041750;28;20024;-80
2020/12/28 11:11:53;;;;;;;4.57;0.90;;;5.50;88.10;;;;;;5093156;28;20055;-80
2020/12/28 11:14:20;;;;;;;3.33;0.85;;;5.50;88.00;;;;;;5041575;28;20109;-80
2020/12/28 11:16:47;;;;;;;3.53;1.25;;;5.50;88.00;;;;;;5055044;28;20024;-80
2020/12/28 11:19:13;;;;;;;1.65;0.80;;;5.60;88.10;;;;;;5073283;28;20024;-79
2020/12/28 11:21:38;;;;;;;2.80;1.10;;;5.50;87.90;;;;;;5038738;28;20033;-80
2020/12/28 11:24:04;;;;;;;3.72;0.93;;;5.60;88.10;;;;;;5055348;28;20527;-79
2020/12/28 11:26:34;;;;;;;2.95;1.20;;;5.60;88.00;;;;;;5073164;28;20032;-79
2020/12/28 11:29:02;;;;;;;2.88;0.80;;;5.60;87.90;;;;;;5055219;28;20017;-80
2020/12/28 11:31:28;;;;;;;4.72;1.33;;;5.70;87.90;;;;;;5062742;28;20024;-80
2020/12/28 11:33:54;;;;;;;3.15;0.73;;;5.70;87.90;;;;;;5038293;28;20028;-79
2020/12/28 11:36:20;;;;;;;3.38;1.00;;;5.70;87.70;;;;;;5037593;28;20492;-79
2020/12/28 11:38:46;;;;;;;3.75;0.80;;;5.70;87.60;;;;;;5038937;28;20374;-80
2020/12/28 11:41:15;;;;;;;2.22;0.77;;;5.70;87.50;;;;;;5073034;28;20107;-80
2020/12/28 11:43:42;;;;;;;3.65;0.88;;;5.70;87.60;;;;;;5038564;28;20025;-80
2020/12/28 11:46:08;;;;;;;2.63;0.60;;;5.70;87.40;;;;;;5063504;28;20032;-80
2020/12/28 11:48:35;;;;;;;1.35;0.63;;;5.70;87.30;;;;;;5075100;28;20024;-79
2020/12/28 11:51:06;;;;;;;3.88;0.90;;;5.70;87.40;;;;;;5075175;28;20024;-79
2020/12/28 11:53:36;;;;;;;4.35;0.95;;;5.70;87.90;;;;;;5074899;28;20028;-79
2020/12/28 11:58:28;;;;;;;4.53;1.10;;;5.70;87.00;;;;;;5075074;28;20032;-79
2020/12/28 12:00:54;;;;;;;2.05;0.70;;;5.80;86.90;;;;;;5054842;28;20029;-80
2020/12/28 12:03:20;;;;;;;3.67;0.90;;;5.90;86.50;;;;;;5054741;28;20036;-80
2020/12/28 12:05:46;;;;;;;2.30;0.77;;;6.10;85.70;;;;;;5038258;28;20028;-80
2020/12/28 12:08:11;;;;;;;1.98;0.80;;;6.50;84.50;;;;;;5038920;28;20028;-79
2020/12/28 12:10:37;;;;;;;1.40;0.73;;;6.90;83.00;;;;;;5043169;28;20119;-80
2020/12/28 12:13:02;;;;;;;6.15;0.80;;;7.30;80.90;;;;;;5061757;28;20075;-80
2020/12/28 12:15:28;;;;;;;2.63;0.73;;;7.70;78.90;;;;;;5096537;28;20028;-80
2020/12/28 12:17:54;;;;;;;1.73;0.68;;;8.00;77.30;;;;;;5045272;28;20039;-80
2020/12/28 12:20:19;;;;;;;1.13;0.85;;;8.20;76.30;;;;;;5061806;28;20476;-80
2020/12/28 12:22:45;;;;;;;2.15;0.80;;;8.50;75.60;;;;;;5096436;28;20055;-80
2020/12/28 12:25:10;;;;;;;3.28;0.70;;;8.70;74.50;;;;;;5096669;28;20055;-80
2020/12/28 12:27:36;;;;;;;2.05;0.80;;;9.10;73.10;;;;;;5045051;28;20028;-80
2020/12/28 12:30:03;;;;;;;2.50;0.40;;;9.30;71.70;;;;;;5093831;28;20016;-80
2020/12/28 12:32:29;;;;;;;2.35;0.65;;;9.60;71.00;;;;;;5074418;28;20032;-80
2020/12/28 12:34:55;;;;;;;5.60;0.60;;;9.70;70.60;;;;;;5090991;28;20040;-81
2020/12/28 12:37:21;;;;;;;1.80;0.60;;;9.80;70.10;;;;;;5091778;28;20036;-79
2020/12/28 12:39:46;;;;;;;2.15;0.63;;;9.90;69.20;;;;;;5088156;28;20494;-85
2020/12/28 12:42:12;;;;;;;4.63;0.70;;;10.00;69.00;;;;;;5055500;28;20089;-84
2020/12/28 12:44:39;;;;;;;1.52;0.60;;;9.80;69.90;;;;;;5104527;28;20028;-84
2020/12/28 12:47:05;;;;;;;2.55;0.70;;;9.40;71.30;;;;;;5072735;28;20051;-84
2020/12/28 12:49:31;;;;;;;3.72;0.80;;;9.20;72.00;;;;;;5089628;28;20376;-84
2020/12/28 12:52:20;;;;;;;2.33;0.65;;;9.00;73.50;;;;;;5090337;28;20101;-84
2020/12/28 12:54:46;;;;;;;;;;;8.60;74.20;;;;;;5091507;28;20142;-85
2020/12/28 12:57:12;;;;;;;3.28;0.70;;;8.70;74.20;;;;;;5091724;28;19907;-77
2020/12/28 13:02:26;;;;;;;3.03;0.63;;;8.80;73.70;;;;;;5091554;28;20047;-77